Time;durP1;ratioP1;P1;durP2;ratioP2;P2;SDS_P1;SDS_P2;PMS_P1;PMS_P2;Temp;Humidity;BMP_temperature;BMP_pressure;BME280_temperature;BME280_humidity;BME280_pressure;Samples;Min_cycle;Max_cycle;Signal;HPM_P1;HPM_P2
2022/11/03 00:00:21;;;;;;;2.47;0.80;;;;;;;;;;10445442;28;20048;-79
2022/11/03 00:10:47;;;;;;;4.68;1.27;;;;;;;;;;10443845;28;20048;-76
2022/11/03 00:15:50;;;;;;;5.40;1.33;;;;;;;;;;10440476;28;20052;-76
2022/11/03 00:20:58;;;;;;;4.43;0.95;;;;;;;;;;10453116;28;20458;-77
2022/11/03 00:26:11;;;;;;;2.95;1.08;;;;;;;;;;10451415;28;20078;-78
2022/11/03 00:31:17;;;;;;;2.00;0.80;;;;;;;;;;10453944;28;20536;-77
2022/11/03 00:36:22;;;;;;;4.43;0.97;;;;;;;;;;10453192;28;20045;-77
2022/11/03 00:41:27;;;;;;;0.93;0.65;;;;;;;;;;10454676;28;20045;-77
2022/11/03 00:46:33;;;;;;;2.15;0.88;;;;;;;;;;10451057;28;20052;-77
2022/11/03 00:51:37;;;;;;;;;;;;;;;;;;10440011;28;20124;-78
2022/11/03 00:56:43;;;;;;;3.13;0.75;;;;;;;;;;10445102;28;19921;-78
2022/11/03 01:01:46;;;;;;;1.05;0.55;;;;;;;;;;10450822;28;20043;-78
2022/11/03 01:06:53;;;;;;;1.20;0.55;;;;;;;;;;10447531;28;20045;-75
2022/11/03 01:12:00;;;;;;;3.45;0.95;;;;;;;;;;10451286;28;20045;-79
2022/11/03 01:17:06;;;;;;;2.83;0.85;;;;;;;;;;10455439;28;20460;-78
2022/11/03 01:22:09;;;;;;;2.47;0.70;;;;;;;;;;10454033;28;20051;-78
2022/11/03 01:27:16;;;;;;;3.08;1.00;;;;;;;;;;10457757;28;20041;-78
2022/11/03 01:32:19;;;;;;;3.22;1.00;;;;;;;;;;10451897;28;20041;-78
2022/11/03 01:37:25;;;;;;;4.13;1.30;;;;;;;;;;10452022;28;20041;-77
2022/11/03 01:42:30;;;;;;;4.57;1.33;;;;;;;;;;10451526;28;20033;-77
2022/11/03 01:47:35;;;;;;;1.50;0.80;;;;;;;;;;10449266;28;20299;-77
2022/11/03 01:52:41;;;;;;;2.67;0.70;;;;;;;;;;10443954;28;20045;-75
2022/11/03 01:57:49;;;;;;;1.63;0.80;;;;;;;;;;10448421;28;20049;-76
2022/11/03 02:02:53;;;;;;;1.23;0.60;;;;;;;;;;10453603;28;20036;-77
2022/11/03 02:08:01;;;;;;;1.25;0.70;;;;;;;;;;10457613;28;20554;-78
2022/11/03 02:13:12;;;;;;;1.00;0.70;;;;;;;;;;10447637;28;20045;-78
2022/11/03 02:18:18;;;;;;;3.97;1.50;;;;;;;;;;10453673;28;20496;-78
2022/11/03 02:23:27;;;;;;;2.22;0.82;;;;;;;;;;10454473;28;20041;-78
2022/11/03 02:28:32;;;;;;;2.30;0.80;;;;;;;;;;10445805;28;20443;-77
2022/11/03 02:33:44;;;;;;;1.80;0.60;;;;;;;;;;10447201;28;20037;-77
2022/11/03 02:38:52;;;;;;;5.40;1.13;;;;;;;;;;10413656;28;20056;-77
2022/11/03 02:43:58;;;;;;;2.33;0.70;;;;;;;;;;10405537;28;20048;-76
2022/11/03 02:49:01;;;;;;;1.53;0.77;;;;;;;;;;10407333;28;20044;-77
2022/11/03 02:54:09;;;;;;;1.92;0.60;;;;;;;;;;10444078;28;20052;-77
2022/11/03 02:59:16;;;;;;;2.80;1.08;;;;;;;;;;10445695;28;20039;-77
2022/11/03 03:04:26;;;;;;;2.67;0.70;;;;;;;;;;10442614;28;20044;-76
2022/11/03 03:09:40;;;;;;;6.72;1.08;;;;;;;;;;10444743;28;20420;-78
2022/11/03 03:14:46;;;;;;;1.95;0.85;;;;;;;;;;10437703;28;20420;-78
2022/11/03 03:19:53;;;;;;;1.88;0.70;;;;;;;;;;10443966;28;20048;-77
2022/11/03 03:25:02;;;;;;;2.80;0.88;;;;;;;;;;10445291;28;20048;-77
2022/11/03 03:30:08;;;;;;;3.78;1.00;;;;;;;;;;10446887;28;20036;-77
2022/11/03 03:35:15;;;;;;;;;;;;;;;;;;10451800;28;20041;-78
2022/11/03 03:40:24;;;;;;;1.85;0.70;;;;;;;;;;10459505;28;19932;-79
2022/11/03 03:45:29;;;;;;;2.15;0.75;;;;;;;;;;10450431;28;20040;-78
2022/11/03 03:50:35;;;;;;;2.55;0.63;;;;;;;;;;10448547;28;20047;-77
2022/11/03 03:55:40;;;;;;;4.05;1.08;;;;;;;;;;10446816;28;20404;-78
2022/11/03 04:00:44;;;;;;;3.10;0.82;;;;;;;;;;10455600;28;20063;-78
2022/11/03 04:05:48;;;;;;;3.63;0.80;;;;;;;;;;10455167;28;20049;-76
2022/11/03 04:26:57;;;;;;;3.17;0.90;;;;;;;;;;10446686;28;20698;-77
2022/11/03 04:32:02;;;;;;;4.70;1.10;;;;;;;;;;10448761;28;20431;-77
2022/11/03 04:37:09;;;;;;;1.85;0.63;;;;;;;;;;10452154;28;20297;-78
2022/11/03 04:42:18;;;;;;;2.08;0.90;;;;;;;;;;10450017;28;20163;-78
2022/11/03 04:47:22;;;;;;;1.70;0.90;;;;;;;;;;10449970;28;20451;-76
2022/11/03 04:52:25;;;;;;;2.55;0.98;;;;;;;;;;10448455;28;20067;-78
2022/11/03 04:57:29;;;;;;;1.58;0.70;;;;;;;;;;10450337;28;20051;-78
2022/11/03 05:02:33;;;;;;;2.25;1.10;;;;;;;;;;10449146;28;20484;-77
2022/11/03 05:07:37;;;;;;;2.65;0.90;;;;;;;;;;10449403;28;20033;-78
2022/11/03 05:12:40;;;;;;;1.35;0.80;;;;;;;;;;10450102;28;20041;-78
2022/11/03 05:17:45;;;;;;;2.50;0.80;;;;;;;;;;10447481;28;20052;-77
2022/11/03 05:22:48;;;;;;;1.17;0.90;;;;;;;;;;10446193;28;20064;-78
2022/11/03 05:27:51;;;;;;;2.55;0.80;;;;;;;;;;10448511;28;20049;-78
2022/11/03 05:32:56;;;;;;;1.20;0.80;;;;;;;;;;10445949;28;20045;-79
2022/11/03 05:37:59;;;;;;;1.77;0.90;;;;;;;;;;10448239;28;20033;-78
2022/11/03 05:43:02;;;;;;;2.50;0.88;;;;;;;;;;10445596;28;20041;-79
2022/11/03 05:48:17;;;;;;;5.07;1.83;;;;;;;;;;10480064;28;20041;-79
2022/11/03 05:53:28;;;;;;;3.22;1.23;;;;;;;;;;10451183;28;20051;-77
2022/11/03 05:58:35;;;;;;;8.95;4.10;;;;;;;;;;10451413;28;20543;-79
2022/11/03 06:03:40;;;;;;;5.07;2.35;;;;;;;;;;10452870;28;20044;-79
2022/11/03 06:08:43;;;;;;;3.45;1.25;;;;;;;;;;10453623;28;20035;-78
2022/11/03 06:13:46;;;;;;;2.22;0.82;;;;;;;;;;10453860;28;20131;-78
2022/11/03 06:18:51;;;;;;;2.67;0.80;;;;;;;;;;10452585;28;20112;-76
2022/11/03 06:23:55;;;;;;;2.55;1.05;;;;;;;;;;10453960;28;20045;-76
2022/11/03 06:29:01;;;;;;;3.45;1.10;;;;;;;;;;10449235;28;20041;-76
2022/11/03 06:34:19;;;;;;;2.87;0.60;;;;;;;;;;10445852;28;20574;-77
2022/11/03 06:39:23;;;;;;;1.50;0.93;;;;;;;;;;10446421;28;20048;-78
2022/11/03 06:44:29;;;;;;;2.65;1.35;;;;;;;;;;10450033;28;20077;-77
2022/11/03 06:49:35;;;;;;;2.83;1.15;;;;;;;;;;10456422;28;20041;-78
2022/11/03 06:54:39;;;;;;;2.08;1.10;;;;;;;;;;10447355;28;20053;-78
2022/11/03 06:59:42;;;;;;;3.95;1.35;;;;;;;;;;10447467;28;20045;-78
2022/11/03 07:04:47;;;;;;;2.97;1.10;;;;;;;;;;10446619;28;20043;-78
2022/11/03 07:09:50;;;;;;;2.35;1.40;;;;;;;;;;10448984;28;20040;-78
2022/11/03 07:14:53;;;;;;;3.80;1.90;;;;;;;;;;10447310;28;20060;-79
2022/11/03 07:19:59;;;;;;;3.95;1.90;;;;;;;;;;10445752;28;20056;-79
2022/11/03 07:25:06;;;;;;;2.70;1.80;;;;;;;;;;10446457;28;20037;-78
2022/11/03 07:30:19;;;;;;;7.18;2.17;;;;;;;;;;10443227;28;20048;-78
2022/11/03 07:35:31;;;;;;;5.03;1.77;;;;;;;;;;10433670;28;20428;-79
2022/11/03 07:40:44;;;;;;;3.35;1.40;;;;;;;;;;10440035;28;20040;-78
2022/11/03 07:45:51;;;;;;;2.58;0.90;;;;;;;;;;10446828;28;20045;-79
2022/11/03 07:50:58;;;;;;;2.97;1.20;;;;;;;;;;10450060;28;20052;-79
2022/11/03 07:56:11;;;;;;;1.88;0.80;;;;;;;;;;10444267;28;20397;-78
2022/11/03 08:01:28;;;;;;;3.50;1.05;;;;;;;;;;10430675;28;20041;-77
2022/11/03 08:06:33;;;;;;;1.67;0.88;;;;;;;;;;10444699;28;20117;-79
2022/11/03 08:11:37;;;;;;;3.90;1.25;;;;;;;;;;10441504;28;20045;-79
2022/11/03 08:16:40;;;;;;;1.83;0.90;;;;;;;;;;10452803;28;20210;-77
2022/11/03 08:21:45;;;;;;;3.45;1.13;;;;;;;;;;10452501;28;20045;-76
2022/11/03 08:26:48;;;;;;;3.22;1.17;;;;;;;;;;10450731;28;20063;-80
2022/11/03 08:31:52;;;;;;;4.43;1.27;;;;;;;;;;10447619;28;20049;-80
2022/11/03 08:36:56;;;;;;;4.55;1.30;;;;;;;;;;10442385;28;20045;-80
2022/11/03 08:42:00;;;;;;;2.22;1.00;;;;;;;;;;10448444;28;20095;-82
2022/11/03 08:47:03;;;;;;;3.22;1.27;;;;;;;;;;10449924;28;20037;-80
2022/11/03 08:52:07;;;;;;;4.72;1.33;;;;;;;;;;10449270;28;20045;-79
2022/11/03 08:57:11;;;;;;;4.70;1.85;;;;;;;;;;10448729;28;20044;-80
2022/11/03 09:02:14;;;;;;;2.10;1.08;;;;;;;;;;10449224;28;20049;-79
2022/11/03 09:07:19;;;;;;;5.72;1.30;;;;;;;;;;10446591;28;20033;-80
2022/11/03 09:12:22;;;;;;;5.03;1.33;;;;;;;;;;10445052;28;20504;-80
2022/11/03 09:17:25;;;;;;;3.35;1.50;;;;;;;;;;10446393;28;20516;-80
2022/11/03 09:22:30;;;;;;;6.20;1.70;;;;;;;;;;10445893;28;20048;-80
2022/11/03 09:27:33;;;;;;;4.82;2.00;;;;;;;;;;10444952;28;20044;-79
2022/11/03 09:32:37;;;;;;;5.82;1.55;;;;;;;;;;10437357;28;20056;-80
2022/11/03 09:37:41;;;;;;;5.93;2.17;;;;;;;;;;10446715;28;20041;-79
2022/11/03 09:42:45;;;;;;;3.35;1.48;;;;;;;;;;10444749;28;20048;-81
2022/11/03 09:47:48;;;;;;;7.28;2.67;;;;;;;;;;10443482;28;20051;-80
2022/11/03 09:52:54;;;;;;;3.58;1.60;;;;;;;;;;10444729;28;20071;-82
2022/11/03 09:58:00;;;;;;;1.60;1.13;;;;;;;;;;10446493;28;20037;-79
2022/11/03 10:03:04;;;;;;;2.47;1.15;;;;;;;;;;10443124;28;20570;-79
2022/11/03 10:08:15;;;;;;;2.78;1.40;;;;;;;;;;10444168;28;20039;-81
2022/11/03 10:13:24;;;;;;;4.63;1.30;;;;;;;;;;10444272;28;20049;-80
2022/11/03 10:18:28;;;;;;;3.08;1.10;;;;;;;;;;10432911;28;20033;-80
2022/11/03 10:23:33;;;;;;;3.25;1.08;;;;;;;;;;10443841;28;20496;-80
2022/11/03 10:28:37;;;;;;;4.15;1.50;;;;;;;;;;10432845;28;20045;-79
2022/11/03 10:33:41;;;;;;;4.53;1.17;;;;;;;;;;10439170;28;20112;-80
2022/11/03 10:38:47;;;;;;;3.03;1.30;;;;;;;;;;10444130;28;20037;-80
2022/11/03 10:44:01;;;;;;;4.47;1.50;;;;;;;;;;10442689;28;20056;-79
2022/11/03 10:49:10;;;;;;;3.22;1.45;;;;;;;;;;10441632;28;20088;-80
2022/11/03 10:54:17;;;;;;;4.35;1.20;;;;;;;;;;10429777;28;20043;-80
2022/11/03 10:59:23;;;;;;;4.45;1.40;;;;;;;;;;10442986;28;20444;-79
2022/11/03 11:04:27;;;;;;;4.57;1.50;;;;;;;;;;10442075;28;20037;-79
2022/11/03 11:09:31;;;;;;;4.68;1.40;;;;;;;;;;10440481;28;20136;-80
2022/11/03 11:14:38;;;;;;;3.88;1.15;;;;;;;;;;10441883;28;20055;-79
2022/11/03 11:20:28;;;;;;;5.30;1.40;;;;;;;;;;10440510;28;20065;-79
2022/11/03 11:26:06;;;;;;;4.68;1.65;;;;;;;;;;10441900;28;20052;-80
2022/11/03 11:31:28;;;;;;;2.72;1.23;;;;;;;;;;10442703;28;20059;-79
2022/11/03 11:36:32;;;;;;;4.35;1.73;;;;;;;;;;10439732;28;20500;-80
2022/11/03 11:42:11;;;;;;;5.18;2.15;;;;;;;;;;10440446;28;20041;-80
2022/11/03 11:47:26;;;;;;;4.88;1.58;;;;;;;;;;10409345;28;20477;-78
2022/11/03 11:52:30;;;;;;;5.70;1.80;;;;;;;;;;10438538;28;20850;-79
2022/11/03 11:57:35;;;;;;;5.82;2.20;;;;;;;;;;10439385;28;20039;-79
2022/11/03 12:02:39;;;;;;;4.43;1.58;;;;;;;;;;10432775;28;20044;-78
2022/11/03 12:07:42;;;;;;;5.03;1.88;;;;;;;;;;10440846;28;20037;-80
2022/11/03 12:12:47;;;;;;;4.30;1.50;;;;;;;;;;10440519;28;20041;-79
2022/11/03 12:17:50;;;;;;;2.90;1.70;;;;;;;;;;10448335;28;20049;-79
2022/11/03 12:22:53;;;;;;;2.88;1.58;;;;;;;;;;10447642;28;20041;-79
2022/11/03 12:27:58;;;;;;;4.80;2.25;;;;;;;;;;10447134;28;20542;-80
2022/11/03 12:33:01;;;;;;;4.38;1.80;;;;;;;;;;10447633;28;20041;-79
2022/11/03 12:38:04;;;;;;;4.93;1.85;;;;;;;;;;10446236;28;20041;-80
2022/11/03 12:43:09;;;;;;;3.97;1.67;;;;;;;;;;10446400;28;20049;-78
2022/11/03 12:48:12;;;;;;;3.22;1.85;;;;;;;;;;10446605;28;20453;-79
2022/11/03 12:53:16;;;;;;;2.35;1.45;;;;;;;;;;10445069;28;20059;-78
2022/11/03 12:58:20;;;;;;;3.35;0.80;;;;;;;;;;10448525;28;20047;-80
2022/11/03 13:03:23;;;;;;;1.73;1.20;;;;;;;;;;10448780;28;20555;-79
2022/11/03 13:08:27;;;;;;;1.77;1.20;;;;;;;;;;10449149;28;20041;-79
2022/11/03 13:13:32;;;;;;;3.53;1.10;;;;;;;;;;10446787;28;20049;-80
2022/11/03 13:18:35;;;;;;;4.32;1.52;;;;;;;;;;10446725;28;20037;-79
2022/11/03 13:23:38;;;;;;;3.15;1.30;;;;;;;;;;10437484;28;20053;-80
2022/11/03 13:28:43;;;;;;;2.50;1.15;;;;;;;;;;10446910;28;20041;-82
2022/11/03 13:33:46;;;;;;;1.75;1.00;;;;;;;;;;10446168;28;20048;-80
2022/11/03 13:38:50;;;;;;;2.60;1.17;;;;;;;;;;10446548;28;20493;-80
2022/11/03 13:43:54;;;;;;;2.47;1.50;;;;;;;;;;10443936;28;20072;-80
2022/11/03 13:48:57;;;;;;;1.85;1.33;;;;;;;;;;10444480;28;20044;-78
2022/11/03 13:54:21;;;;;;;3.53;1.40;;;;;;;;;;10443278;28;20052;-78
2022/11/03 13:59:45;;;;;;;2.30;1.23;;;;;;;;;;10436301;28;20037;-80
2022/11/03 14:04:49;;;;;;;4.10;2.00;;;;;;;;;;10442493;28;20453;-80
2022/11/03 14:09:52;;;;;;;1.35;0.90;;;;;;;;;;10444188;28;20041;-78
2022/11/03 14:14:57;;;;;;;3.10;0.90;;;;;;;;;;10443235;28;20061;-78
2022/11/03 14:20:01;;;;;;;3.55;1.17;;;;;;;;;;10443408;28;20048;-80
2022/11/03 14:25:07;;;;;;;2.17;1.17;;;;;;;;;;10442339;28;20041;-79
2022/11/03 14:30:13;;;;;;;2.03;0.90;;;;;;;;;;10442661;28;20048;-79
2022/11/03 14:35:16;;;;;;;2.00;1.08;;;;;;;;;;10444335;28;20044;-80
2022/11/03 14:45:47;;;;;;;3.88;1.80;;;;;;;;;;10388615;28;20041;-81
2022/11/03 14:50:52;;;;;;;4.60;1.70;;;;;;;;;;10441736;28;20049;-79
2022/11/03 14:55:55;;;;;;;4.35;1.88;;;;;;;;;;10441629;28;20052;-78
2022/11/03 15:01:00;;;;;;;3.35;1.50;;;;;;;;;;10438969;28;20091;-80
2022/11/03 15:06:03;;;;;;;2.70;1.70;;;;;;;;;;10439094;28;20079;-78
2022/11/03 15:11:08;;;;;;;3.05;1.58;;;;;;;;;;10432332;28;20076;-79
2022/11/03 15:16:13;;;;;;;2.03;1.00;;;;;;;;;;10433276;28;20044;-80
2022/11/03 15:21:17;;;;;;;2.22;1.20;;;;;;;;;;10447336;28;20047;-80
2022/11/03 15:26:20;;;;;;;2.67;1.75;;;;;;;;;;10446373;28;20044;-79
2022/11/03 15:31:25;;;;;;;4.15;2.15;;;;;;;;;;10445965;28;20049;-80
2022/11/03 15:36:28;;;;;;;3.58;1.95;;;;;;;;;;10445879;28;20049;-80
2022/11/03 15:41:31;;;;;;;4.68;1.98;;;;;;;;;;10439382;28;20045;-80
2022/11/03 15:46:36;;;;;;;5.45;2.10;;;;;;;;;;10448941;28;20045;-80
2022/11/03 15:51:39;;;;;;;2.63;1.80;;;;;;;;;;10457656;28;20037;-81
2022/11/03 15:56:42;;;;;;;2.60;1.65;;;;;;;;;;10463882;28;20045;-79
2022/11/03 16:01:47;;;;;;;2.47;1.45;;;;;;;;;;10463227;28;20488;-80
2022/11/03 16:06:51;;;;;;;2.63;1.55;;;;;;;;;;10464490;28;20127;-80
2022/11/03 16:19:12;;;;;;;6.28;2.10;;;;;;;;;;10482878;28;20044;-78
2022/11/03 16:24:15;;;;;;;3.63;2.03;;;;;;;;;;10482668;28;20044;-81
2022/11/03 16:29:19;;;;;;;2.90;1.52;;;;;;;;;;10488834;28;20040;-83
2022/11/03 16:34:23;;;;;;;3.17;1.70;;;;;;;;;;10495428;28;20049;-81
2022/11/03 16:39:27;;;;;;;5.53;2.47;;;;;;;;;;10489716;28;20041;-80
2022/11/03 16:44:30;;;;;;;4.85;2.53;;;;;;;;;;10484747;28;20056;-80
2022/11/03 16:49:40;;;;;;;2.83;2.05;;;;;;;;;;10471942;28;20119;-79
2022/11/03 16:54:43;;;;;;;6.00;2.45;;;;;;;;;;10474408;28;20045;-79
2022/11/03 16:59:46;;;;;;;6.05;2.78;;;;;;;;;;10469495;28;20045;-81
2022/11/03 17:04:51;;;;;;;5.97;2.20;;;;;;;;;;10458781;28;20049;-80
2022/11/03 17:09:55;;;;;;;4.82;2.30;;;;;;;;;;10468060;28;20051;-81
2022/11/03 17:14:58;;;;;;;2.92;1.70;;;;;;;;;;10466652;28;20117;-82
2022/11/03 17:20:07;;;;;;;3.60;1.98;;;;;;;;;;10464016;28;20056;-79
2022/11/03 17:25:12;;;;;;;2.28;1.40;;;;;;;;;;10442552;28;20072;-79
2022/11/03 17:30:19;;;;;;;4.18;1.85;;;;;;;;;;10448471;28;20542;-79
2022/11/03 17:35:29;;;;;;;3.25;1.70;;;;;;;;;;10459460;28;20720;-79
2022/11/03 17:40:35;;;;;;;1.20;1.10;;;;;;;;;;10459832;28;20062;-79
2022/11/03 17:45:38;;;;;;;1.38;1.10;;;;;;;;;;10438133;28;20459;-79
2022/11/03 17:50:47;;;;;;;3.80;1.35;;;;;;;;;;10478522;28;20554;-79
2022/11/03 17:55:51;;;;;;;2.30;1.20;;;;;;;;;;10457162;28;20045;-80
2022/11/03 18:01:20;;;;;;;1.75;1.17;;;;;;;;;;10471734;28;20049;-80
2022/11/03 18:06:24;;;;;;;2.35;1.38;;;;;;;;;;10454717;28;20071;-80
2022/11/03 18:16:52;;;;;;;2.55;1.35;;;;;;;;;;10467450;28;20040;-81
2022/11/03 18:21:58;;;;;;;0.95;0.90;;;;;;;;;;10459768;28;20040;-79
2022/11/03 18:27:02;;;;;;;1.00;0.70;;;;;;;;;;10467621;28;20048;-79
2022/11/03 18:32:06;;;;;;;1.38;0.90;;;;;;;;;;10452234;28;20508;-80
2022/11/03 18:37:10;;;;;;;2.10;1.20;;;;;;;;;;10471788;28;20047;-80
2022/11/03 18:42:15;;;;;;;1.88;1.23;;;;;;;;;;10469843;28;20044;-79
2022/11/03 18:47:18;;;;;;;2.47;1.48;;;;;;;;;;10472636;28;20045;-79
2022/11/03 18:52:23;;;;;;;2.47;1.55;;;;;;;;;;10477805;28;20039;-79
2022/11/03 18:57:26;;;;;;;2.90;1.10;;;;;;;;;;10478109;28;20407;-79
2022/11/03 19:02:30;;;;;;;2.63;1.83;;;;;;;;;;10468069;28;20041;-80
2022/11/03 19:07:38;;;;;;;2.60;1.90;;;;;;;;;;10456727;28;20032;-79
2022/11/03 19:12:47;;;;;;;3.15;1.50;;;;;;;;;;10463207;28;20052;-80
2022/11/03 19:17:54;;;;;;;4.25;1.70;;;;;;;;;;10474861;28;20686;-79
2022/11/03 19:22:58;;;;;;;3.35;1.92;;;;;;;;;;10474157;28;20056;-79
2022/11/03 19:28:02;;;;;;;2.10;1.63;;;;;;;;;;10473364;28;20066;-80
2022/11/03 19:33:06;;;;;;;4.97;2.33;;;;;;;;;;10476511;28;20037;-81
2022/11/03 19:38:15;;;;;;;2.03;1.43;;;;;;;;;;10460715;28;20048;-81
2022/11/03 19:43:18;;;;;;;3.70;2.13;;;;;;;;;;10465222;28;20048;-78
2022/11/03 19:48:22;;;;;;;3.65;1.80;;;;;;;;;;10451965;28;20052;-79
2022/11/03 19:53:29;;;;;;;2.60;1.60;;;;;;;;;;10470335;28;20045;-81
2022/11/03 19:58:33;;;;;;;;;;;;;;;;;;10485268;28;20048;-81
2022/11/03 20:03:36;;;;;;;2.30;1.80;;;;;;;;;;10488826;28;19930;-79
2022/11/03 20:08:41;;;;;;;2.95;1.70;;;;;;;;;;10481738;28;20036;-81
2022/11/03 20:13:45;;;;;;;2.47;1.33;;;;;;;;;;10479256;28;20048;-80
2022/11/03 20:18:48;;;;;;;3.42;1.73;;;;;;;;;;10471999;28;20049;-80
2022/11/03 20:23:53;;;;;;;2.10;1.55;;;;;;;;;;10463552;28;20059;-78
2022/11/03 20:28:57;;;;;;;2.42;1.75;;;;;;;;;;10472363;28;20051;-80
2022/11/03 20:34:01;;;;;;;2.40;1.38;;;;;;;;;;10465780;28;20072;-79
2022/11/03 20:39:06;;;;;;;2.03;1.42;;;;;;;;;;10443043;28;20708;-80
2022/11/03 20:44:10;;;;;;;1.75;1.08;;;;;;;;;;10395240;28;20057;-83
2022/11/03 20:49:13;;;;;;;1.60;1.27;;;;;;;;;;10384190;28;20037;-81
2022/11/03 20:54:20;;;;;;;2.60;1.77;;;;;;;;;;10385054;28;20054;-79
2022/11/03 20:59:25;;;;;;;3.97;1.70;;;;;;;;;;10391399;28;20040;-80
2022/11/03 21:04:29;;;;;;;2.58;1.70;;;;;;;;;;10477023;28;20511;-79
2022/11/03 21:09:34;;;;;;;3.15;1.40;;;;;;;;;;10455440;28;20401;-82
2022/11/03 21:14:38;;;;;;;1.92;1.20;;;;;;;;;;10459336;28;20048;-80
2022/11/03 21:25:00;;;;;;;1.52;0.90;;;;;;;;;;10467121;28;20048;-79
2022/11/03 21:30:03;;;;;;;1.65;0.80;;;;;;;;;;10453309;28;20080;-82
2022/11/03 21:35:10;;;;;;;0.70;0.70;;;;;;;;;;10482313;28;20485;-81
2022/11/03 21:40:15;;;;;;;1.48;0.75;;;;;;;;;;10463326;28;20055;-78
2022/11/03 21:45:19;;;;;;;1.27;1.08;;;;;;;;;;10465961;28;20047;-79
2022/11/03 21:50:22;;;;;;;0.90;0.85;;;;;;;;;;10464735;28;20490;-79
2022/11/03 21:55:27;;;;;;;0.95;0.65;;;;;;;;;;10448355;28;20049;-78
2022/11/03 22:00:31;;;;;;;0.98;0.88;;;;;;;;;;10456251;28;20051;-77
2022/11/03 22:05:34;;;;;;;0.88;0.73;;;;;;;;;;10472337;28;20041;-79
2022/11/03 22:10:40;;;;;;;1.83;0.88;;;;;;;;;;10459329;28;20043;-79
2022/11/03 22:26:55;;;;;;;1.45;0.80;;;;;;;;;;10438052;28;20772;-79
2022/11/03 22:31:59;;;;;;;1.45;0.80;;;;;;;;;;10468751;28;20068;-81
2022/11/03 22:37:02;;;;;;;1.42;0.80;;;;;;;;;;10483836;28;20048;-78
2022/11/03 22:47:28;;;;;;;0.35;0.35;;;;;;;;;;10474780;28;20071;-80
2022/11/03 22:52:31;;;;;;;0.57;0.50;;;;;;;;;;10463366;28;20042;-81
2022/11/03 22:57:36;;;;;;;0.75;0.60;;;;;;;;;;10466827;28;20545;-80
2022/11/03 23:02:39;;;;;;;0.38;0.30;;;;;;;;;;10455510;28;20040;-81
2022/11/03 23:07:42;;;;;;;0.50;0.50;;;;;;;;;;10462354;28;20037;-79
2022/11/03 23:12:47;;;;;;;0.77;0.57;;;;;;;;;;10477961;28;20071;-80
2022/11/03 23:24:57;;;;;;;0.57;0.55;;;;;;;;;;10462660;28;20044;-79
2022/11/03 23:28:36;;;;;;;1.67;0.60;;;;;;;;;;10452979;28;20060;-78
2022/11/03 23:33:39;;;;;;;0.70;0.50;;;;;;;;;;10460289;28;20056;-79
2022/11/03 23:38:43;;;;;;;0.40;0.40;;;;;;;;;;10459094;28;20066;-78
2022/11/03 23:43:48;;;;;;;1.02;0.70;;;;;;;;;;10477107;28;20040;-79
2022/11/03 23:48:52;;;;;;;0.80;0.52;;;;;;;;;;10468997;28;20117;-79
2022/11/03 23:53:57;;;;;;;0.40;0.40;;;;;;;;;;10474572;28;20041;-80
2022/11/03 23:59:02;;;;;;;1.10;0.60;;;;;;;;;;10467315;28;20045;-79
